createdAt,value
2017-12-05T00:00:55.859Z,1029.76
2017-12-05T00:02:05.026Z,1029.79
2017-12-05T00:03:14.508Z,1029.75
2017-12-05T00:04:23.170Z,1029.74
2017-12-05T00:05:32.368Z,1029.7
2017-12-05T00:06:41.554Z,1029.76
2017-12-05T00:07:50.467Z,1029.74
2017-12-05T00:08:59.392Z,1029.74
2017-12-05T00:10:08.308Z,1029.68
2017-12-05T00:11:17.734Z,1029.69
2017-12-05T00:12:27.163Z,1029.68
2017-12-05T00:13:36.333Z,1029.68
2017-12-05T00:14:45.244Z,1029.69
2017-12-05T00:15:54.166Z,1029.63
2017-12-05T00:17:03.628Z,1029.65
2017-12-05T00:18:12.814Z,1029.67
2017-12-05T00:19:21.749Z,1029.66
2017-12-05T00:20:30.666Z,1029.66
2017-12-05T00:21:39.842Z,1029.65
2017-12-05T00:22:48.782Z,1029.66
2017-12-05T00:23:58.199Z,1029.66
2017-12-05T00:25:07.636Z,1029.68
2017-12-05T00:26:17.345Z,1029.67
2017-12-05T00:27:26.254Z,1029.68
2017-12-05T00:28:35.162Z,1029.66
2017-12-05T00:29:44.323Z,1029.67
2017-12-05T00:30:53.498Z,1029.65
2017-12-05T00:32:02.425Z,1029.64
2017-12-05T00:33:11.765Z,1029.64
2017-12-05T00:34:20.406Z,1029.61
2017-12-05T00:35:29.311Z,1029.68
2017-12-05T00:36:38.230Z,1029.71
2017-12-05T00:37:47.657Z,1029.71
2017-12-05T00:38:56.832Z,1029.68
2017-12-05T00:40:06.003Z,1029.67
2017-12-05T00:41:15.422Z,1029.66
2017-12-05T00:42:24.088Z,1029.66
2017-12-05T00:43:32.764Z,1029.65
2017-12-05T00:44:41.432Z,1029.63
2017-12-05T00:45:50.346Z,1029.61
2017-12-05T00:46:59.553Z,1029.57
2017-12-05T00:48:08.723Z,1029.55
2017-12-05T00:49:17.638Z,1029.59
2017-12-05T00:50:26.833Z,1029.54
2017-12-05T00:51:35.804Z,1029.52
2017-12-05T00:52:44.512Z,1029.53
2017-12-05T00:53:53.464Z,1029.49
2017-12-05T00:55:02.642Z,1029.48
2017-12-05T00:56:11.820Z,1029.5
2017-12-05T00:57:20.989Z,1029.49
2017-12-05T00:58:29.679Z,1029.47
2017-12-05T00:59:39.136Z,1029.46
2017-12-05T01:00:48.054Z,1029.43
2017-12-05T01:01:56.697Z,1029.45
2017-12-05T01:03:05.370Z,1029.43
2017-12-05T01:04:14.794Z,1029.41
2017-12-05T01:05:23.710Z,1029.39
2017-12-05T01:06:32.642Z,1029.41
2017-12-05T01:07:41.543Z,1029.43
2017-12-05T01:08:50.996Z,1029.45
2017-12-05T01:09:59.687Z,1029.51
2017-12-05T01:11:08.333Z,1029.5
2017-12-05T01:12:17.000Z,1029.49
2017-12-05T01:13:26.704Z,1029.5
2017-12-05T01:14:35.947Z,1029.52
2017-12-05T01:15:45.380Z,1029.53
2017-12-05T01:16:54.812Z,1029.58
2017-12-05T01:18:03.722Z,1029.57
2017-12-05T01:19:12.899Z,1029.63
2017-12-05T01:20:21.834Z,1029.63
2017-12-05T01:21:30.747Z,1029.63
2017-12-05T01:22:39.939Z,1029.64
2017-12-05T01:23:49.118Z,1029.65
2017-12-05T01:24:58.027Z,1029.65
2017-12-05T01:26:07.215Z,1029.67
2017-12-05T01:27:16.376Z,1029.7
2017-12-05T01:28:25.550Z,1029.73
2017-12-05T01:29:34.472Z,1029.74
2017-12-05T01:30:43.383Z,1029.73
2017-12-05T01:31:52.830Z,1029.73
2017-12-05T01:33:01.763Z,1029.69
2017-12-05T01:34:11.459Z,1029.69
2017-12-05T01:35:20.365Z,1029.72
2017-12-05T01:36:29.559Z,1029.71
2017-12-05T01:37:38.208Z,1029.7
2017-12-05T01:38:46.879Z,1029.72
2017-12-05T01:39:55.833Z,1029.72
2017-12-05T01:41:05.310Z,1029.74
2017-12-05T01:42:14.221Z,1029.71
2017-12-05T01:43:23.420Z,1029.73
2017-12-05T01:44:32.341Z,1029.73
2017-12-05T01:45:41.762Z,1029.74
2017-12-05T01:46:51.203Z,1029.73
2017-12-05T01:48:00.894Z,1029.65
2017-12-05T01:49:10.091Z,1029.63
2017-12-05T01:50:18.737Z,1029.64
2017-12-05T01:51:27.644Z,1029.68
2017-12-05T01:52:37.333Z,1029.68
2017-12-05T01:53:46.532Z,1029.66
2017-12-05T01:54:55.447Z,1029.67
2017-12-05T01:56:04.626Z,1029.65
2017-12-05T01:57:13.575Z,1029.62
2017-12-05T01:58:22.249Z,1029.69
2017-12-05T01:59:31.436Z,1029.7
2017-12-05T02:00:40.863Z,1029.71
2017-12-05T02:01:50.308Z,1029.73
2017-12-05T02:02:59.291Z,1029.79
2017-12-05T02:04:08.767Z,1029.75
2017-12-05T02:05:17.683Z,1029.78
2017-12-05T02:06:27.393Z,1029.84
2017-12-05T02:07:36.307Z,1029.84
2017-12-05T02:08:45.481Z,1029.85
2017-12-05T02:09:54.646Z,1029.84
2017-12-05T02:11:03.814Z,1029.86
2017-12-05T02:12:12.988Z,1029.86
2017-12-05T02:13:21.914Z,1029.88
2017-12-05T02:14:31.334Z,1029.86
2017-12-05T02:15:41.035Z,1029.85
2017-12-05T02:16:50.242Z,1029.81
2017-12-05T02:17:59.448Z,1029.8
2017-12-05T02:19:08.361Z,1029.84
2017-12-05T02:20:17.015Z,1029.82
2017-12-05T02:21:25.951Z,1029.81
2017-12-05T02:22:35.372Z,1029.81
2017-12-05T02:23:44.284Z,1029.8
2017-12-05T02:24:53.454Z,1029.78
2017-12-05T02:26:02.620Z,1029.82
2017-12-05T02:27:11.517Z,1029.73
2017-12-05T02:28:20.952Z,1029.66
2017-12-05T02:29:29.885Z,1029.63
2017-12-05T02:30:38.792Z,1029.62
2017-12-05T02:31:48.508Z,1029.59
2017-12-05T02:32:57.933Z,1029.64
2017-12-05T02:34:07.122Z,1029.63
2017-12-05T02:35:16.352Z,1029.67
2017-12-05T02:36:25.343Z,1029.65
2017-12-05T02:37:34.258Z,1029.67
2017-12-05T02:38:43.679Z,1029.63
2017-12-05T02:39:52.619Z,1029.63
2017-12-05T02:41:01.322Z,1029.6
2017-12-05T02:42:10.775Z,1029.58
2017-12-05T02:43:19.690Z,1029.51
2017-12-05T02:44:29.135Z,1029.5
2017-12-05T02:45:38.041Z,1029.5
2017-12-05T02:46:46.977Z,1029.51
2017-12-05T02:47:56.161Z,1029.56
2017-12-05T02:49:05.363Z,1029.55
2017-12-05T02:50:14.542Z,1029.53
2017-12-05T02:51:24.263Z,1029.54
2017-12-05T02:52:33.419Z,1029.5
2017-12-05T02:53:42.596Z,1029.49
2017-12-05T02:54:51.535Z,1029.5
2017-12-05T02:56:00.980Z,1029.48
2017-12-05T02:57:10.412Z,1029.5
2017-12-05T02:58:19.836Z,1029.56
2017-12-05T02:59:28.511Z,1029.54
2017-12-05T03:00:37.152Z,1029.55
2017-12-05T03:01:46.330Z,1029.51
2017-12-05T03:02:55.249Z,1029.55
2017-12-05T03:04:04.152Z,1029.58
2017-12-05T03:05:13.339Z,1029.58
2017-12-05T03:06:22.509Z,1029.61
2017-12-05T03:07:31.700Z,1029.64
2017-12-05T03:08:40.882Z,1029.61
2017-12-05T03:09:50.041Z,1029.63
2017-12-05T03:10:59.484Z,1029.61
2017-12-05T03:12:08.398Z,1029.59
2017-12-05T03:13:17.057Z,1029.63
2017-12-05T03:14:25.726Z,1029.62
2017-12-05T03:15:34.424Z,1029.61
2017-12-05T03:16:43.610Z,1029.62
2017-12-05T03:17:52.811Z,1029.67
2017-12-05T03:19:01.726Z,1029.63
2017-12-05T03:20:10.674Z,1029.63
2017-12-05T03:21:19.862Z,1029.64
2017-12-05T03:22:29.039Z,1029.64
2017-12-05T03:23:37.692Z,1029.58
2017-12-05T03:24:46.873Z,1029.57
2017-12-05T03:25:55.538Z,1029.58
2017-12-05T03:27:04.973Z,1029.58
2017-12-05T03:28:14.650Z,1029.57
2017-12-05T03:29:23.598Z,1029.57
2017-12-05T03:30:33.094Z,1029.57
2017-12-05T03:31:42.893Z,1029.55
2017-12-05T03:32:51.825Z,1029.55
2017-12-05T03:34:00.503Z,1029.53
2017-12-05T03:35:09.433Z,1029.52
2017-12-05T03:36:18.857Z,1029.52
2017-12-05T03:37:28.030Z,1029.56
2017-12-05T03:38:36.712Z,1029.58
2017-12-05T03:39:45.378Z,1029.54
2017-12-05T03:40:54.548Z,1029.58
2017-12-05T03:42:03.464Z,1029.61
2017-12-05T03:43:12.678Z,1029.61
2017-12-05T03:44:21.582Z,1029.59
2017-12-05T03:45:30.481Z,1029.56
2017-12-05T03:46:39.938Z,1029.56
2017-12-05T03:47:48.873Z,1029.61
2017-12-05T03:48:57.819Z,1029.6
2017-12-05T03:50:06.800Z,1029.62
2017-12-05T03:51:15.733Z,1029.59
2017-12-05T03:52:24.649Z,1029.53
2017-12-05T03:53:33.827Z,1029.5
2017-12-05T03:54:42.746Z,1029.5
2017-12-05T03:55:52.172Z,1029.49
2017-12-05T03:57:01.102Z,1029.49
2017-12-05T03:58:10.306Z,1029.47
2017-12-05T03:59:19.227Z,1029.5
2017-12-05T04:00:28.950Z,1029.46
2017-12-05T04:01:37.893Z,1029.46
2017-12-05T04:02:47.321Z,1029.46
2017-12-05T04:03:56.489Z,1029.51
2017-12-05T04:05:05.152Z,1029.5
2017-12-05T04:06:14.591Z,1029.45
2017-12-05T04:07:23.747Z,1029.46
2017-12-05T04:08:33.211Z,1029.46
2017-12-05T04:09:42.632Z,1029.41
2017-12-05T04:10:52.070Z,1029.34
2017-12-05T04:12:00.980Z,1029.34
2017-12-05T04:13:09.893Z,1029.32
2017-12-05T04:14:18.816Z,1029.3
2017-12-05T04:15:28.287Z,1029.3
2017-12-05T04:16:37.463Z,1029.28
2017-12-05T04:17:46.897Z,1029.25
2017-12-05T04:18:56.135Z,1029.27
2017-12-05T04:20:05.373Z,1029.3
2017-12-05T04:21:14.809Z,1029.32
2017-12-05T04:22:23.712Z,1029.32
2017-12-05T04:23:33.405Z,1029.28
2017-12-05T04:24:42.330Z,1029.3
2017-12-05T04:25:51.766Z,1029.32
2017-12-05T04:27:00.702Z,1029.36
2017-12-05T04:28:10.122Z,1029.31
2017-12-05T04:29:19.288Z,1029.28
2017-12-05T04:30:28.986Z,1029.29
2017-12-05T04:31:38.155Z,1029.27
2017-12-05T04:32:47.058Z,1029.29
2017-12-05T04:33:55.993Z,1029.31
2017-12-05T04:35:05.733Z,1029.22
2017-12-05T04:36:14.644Z,1029.24
2017-12-05T04:37:24.089Z,1029.21
2017-12-05T04:38:33.514Z,1029.21
2017-12-05T04:39:42.686Z,1029.16
2017-12-05T04:40:52.369Z,1029.17
2017-12-05T04:42:01.277Z,1029.13
2017-12-05T04:43:10.459Z,1029.06
2017-12-05T04:44:19.898Z,1029.11
2017-12-05T04:45:28.829Z,1029.14
2017-12-05T04:46:38.253Z,1029.11
2017-12-05T04:47:47.688Z,1029.13
2017-12-05T04:48:56.618Z,1029.19
2017-12-05T04:50:06.378Z,1029.2
2017-12-05T04:51:15.544Z,1029.23
2017-12-05T04:52:24.982Z,1029.24
2017-12-05T04:53:34.707Z,1029.26
2017-12-05T04:54:43.878Z,1029.27
2017-12-05T04:55:53.850Z,1029.24
2017-12-05T04:57:03.026Z,1029.23
2017-12-05T04:58:12.185Z,1029.24
2017-12-05T04:59:21.616Z,1029.23
2017-12-05T05:00:30.786Z,1029.24
2017-12-05T05:01:39.976Z,1029.21
2017-12-05T05:02:48.929Z,1029.23
2017-12-05T05:03:57.832Z,1029.22
2017-12-05T05:05:06.763Z,1029.2
2017-12-05T05:06:16.190Z,1029.21
2017-12-05T05:07:25.128Z,1029.18
2017-12-05T05:08:34.807Z,1029.18
2017-12-05T05:09:43.721Z,1029.18
2017-12-05T05:10:53.152Z,1029.22
2017-12-05T05:12:02.061Z,1029.19
2017-12-05T05:13:11.264Z,1029.24
2017-12-05T05:14:20.723Z,1029.28
2017-12-05T05:15:29.908Z,1029.28
2017-12-05T05:16:38.812Z,1029.33
2017-12-05T05:17:47.988Z,1029.28
2017-12-05T05:18:57.660Z,1029.29
2017-12-05T05:20:06.580Z,1029.31
2017-12-05T05:21:15.749Z,1029.29
2017-12-05T05:22:24.662Z,1029.29
2017-12-05T05:23:33.562Z,1029.32
2017-12-05T05:24:42.462Z,1029.29
2017-12-05T05:25:51.363Z,1029.34
2017-12-05T05:27:00.545Z,1029.33
2017-12-05T05:28:09.463Z,1029.33
2017-12-05T05:29:18.375Z,1029.33
2017-12-05T05:30:27.542Z,1029.33
2017-12-05T05:31:36.472Z,1029.35
2017-12-05T05:32:45.647Z,1029.34
2017-12-05T05:33:54.816Z,1029.32
2017-12-05T05:35:03.488Z,1029.38
2017-12-05T05:36:12.402Z,1029.39
2017-12-05T05:37:21.831Z,1029.37
2017-12-05T05:38:31.295Z,1029.37
2017-12-05T05:39:40.480Z,1029.38
2017-12-05T05:40:49.140Z,1029.36
2017-12-05T05:41:57.786Z,1029.42
2017-12-05T05:43:06.973Z,1029.41
2017-12-05T05:44:15.882Z,1029.36
2017-12-05T05:45:25.592Z,1029.42
2017-12-05T05:46:34.770Z,1029.44
2017-12-05T05:47:43.679Z,1029.44
2017-12-05T05:48:52.857Z,1029.45
2017-12-05T05:50:01.804Z,1029.46
2017-12-05T05:51:10.976Z,1029.43
2017-12-05T05:52:19.937Z,1029.45
2017-12-05T05:53:28.593Z,1029.45
2017-12-05T05:54:38.021Z,1029.44
2017-12-05T05:55:47.702Z,1029.49
2017-12-05T05:56:56.369Z,1029.46
2017-12-05T05:58:05.799Z,1029.4
2017-12-05T05:59:15.208Z,1029.47
2017-12-05T06:00:24.421Z,1029.48
2017-12-05T06:01:34.120Z,1029.45
2017-12-05T06:02:43.025Z,1029.46
2017-12-05T06:03:51.939Z,1029.5
2017-12-05T06:05:01.123Z,1029.5
2017-12-05T06:06:10.287Z,1029.51
2017-12-05T06:07:19.203Z,1029.51
2017-12-05T06:08:28.623Z,1029.47
2017-12-05T06:09:38.042Z,1029.47
2017-12-05T06:10:47.197Z,1029.46
2017-12-05T06:11:56.631Z,1029.47
2017-12-05T06:13:06.098Z,1029.45
2017-12-05T06:14:15.281Z,1029.5
2017-12-05T06:15:24.438Z,1029.47
2017-12-05T06:16:33.855Z,1029.46
2017-12-05T06:17:42.763Z,1029.49
2017-12-05T06:18:52.007Z,1029.44
2017-12-05T06:20:00.668Z,1029.46
2017-12-05T06:21:09.639Z,1029.45
2017-12-05T06:22:18.325Z,1029.43
2017-12-05T06:23:26.969Z,1029.51
2017-12-05T06:24:35.890Z,1029.49
2017-12-05T06:25:45.070Z,1029.51
2017-12-05T06:26:54.251Z,1029.53
2017-12-05T06:28:03.960Z,1029.52
2017-12-05T06:29:12.635Z,1029.58
2017-12-05T06:30:21.814Z,1029.53
2017-12-05T06:31:31.003Z,1029.51
2017-12-05T06:32:40.168Z,1029.51
2017-12-05T06:33:49.360Z,1029.52
2017-12-05T06:34:58.527Z,1029.53
2017-12-05T06:36:07.712Z,1029.53
2017-12-05T06:37:16.885Z,1029.57
2017-12-05T06:38:26.897Z,1029.52
2017-12-05T06:39:36.092Z,1029.52
2017-12-05T06:40:45.040Z,1029.56
2017-12-05T06:41:53.972Z,1029.56
2017-12-05T06:43:02.879Z,1029.54
2017-12-05T06:44:11.858Z,1029.56
2017-12-05T06:45:20.778Z,1029.51
2017-12-05T06:46:29.950Z,1029.55
2017-12-05T06:47:38.614Z,1029.56
2017-12-05T06:48:47.291Z,1029.55
2017-12-05T06:49:56.490Z,1029.5
2017-12-05T06:51:05.416Z,1029.51
2017-12-05T06:52:14.594Z,1029.52
2017-12-05T06:53:23.800Z,1029.55
2017-12-05T06:54:32.988Z,1029.51
2017-12-05T06:55:41.660Z,1029.51
2017-12-05T06:56:51.113Z,1029.5
2017-12-05T06:58:00.279Z,1029.52
2017-12-05T06:59:09.207Z,1029.53
2017-12-05T07:00:18.113Z,1029.55
2017-12-05T07:01:26.773Z,1029.58
2017-12-05T07:02:35.434Z,1029.59
2017-12-05T07:03:44.628Z,1029.63
2017-12-05T07:04:53.310Z,1029.57
2017-12-05T07:06:02.239Z,1029.58
2017-12-05T07:07:11.637Z,1029.64
2017-12-05T07:08:20.281Z,1029.62
2017-12-05T07:09:29.441Z,1029.65
2017-12-05T07:10:38.868Z,1029.63
2017-12-05T07:11:48.037Z,1029.65
2017-12-05T07:12:56.946Z,1029.65
2017-12-05T07:14:06.110Z,1029.67
2017-12-05T07:15:15.031Z,1029.71
2017-12-05T07:16:24.252Z,1029.72
2017-12-05T07:17:33.684Z,1029.76
2017-12-05T07:18:42.599Z,1029.81
2017-12-05T07:19:51.296Z,1029.81
2017-12-05T07:21:00.900Z,1029.82
2017-12-05T07:22:10.658Z,1029.87
2017-12-05T07:23:19.599Z,1029.79
2017-12-05T07:24:28.512Z,1029.81
2017-12-05T07:25:37.437Z,1029.87
2017-12-05T07:26:46.896Z,1029.79
2017-12-05T07:27:55.540Z,1029.77
2017-12-05T07:29:04.713Z,1029.76
2017-12-05T07:30:13.615Z,1029.79
2017-12-05T07:31:22.264Z,1029.74
2017-12-05T07:32:31.477Z,1029.81
2017-12-05T07:33:40.895Z,1029.8
2017-12-05T07:34:50.362Z,1029.78
2017-12-05T07:35:59.831Z,1029.78
2017-12-05T07:37:08.745Z,1029.82
2017-12-05T07:38:18.162Z,1029.84
2017-12-05T07:39:27.354Z,1029.83
2017-12-05T07:40:36.527Z,1029.85
2017-12-05T07:41:45.968Z,1029.83
2017-12-05T07:42:55.135Z,1029.84
2017-12-05T07:44:03.783Z,1029.8
2017-12-05T07:45:13.473Z,1029.82
2017-12-05T07:46:22.375Z,1029.8
2017-12-05T07:47:31.296Z,1029.81
2017-12-05T07:48:39.937Z,1029.79
2017-12-05T07:49:49.180Z,1029.81
2017-12-05T07:50:58.119Z,1029.82
2017-12-05T07:52:07.296Z,1029.86
2017-12-05T07:53:16.226Z,1029.84
2017-12-05T07:54:25.391Z,1029.84
2017-12-05T07:55:34.547Z,1029.84
2017-12-05T07:56:43.726Z,1029.8
2017-12-05T07:57:53.137Z,1029.84
2017-12-05T07:59:02.825Z,1029.88
2017-12-05T08:00:11.745Z,1029.81
2017-12-05T08:01:21.193Z,1029.82
2017-12-05T08:02:30.610Z,1029.78
2017-12-05T08:03:39.529Z,1029.82
2017-12-05T08:04:48.440Z,1029.77
2017-12-05T08:05:57.359Z,1029.75
2017-12-05T08:07:06.252Z,1029.76
2017-12-05T08:08:15.189Z,1029.79
2017-12-05T08:09:24.352Z,1029.8
2017-12-05T08:10:33.278Z,1029.77
2017-12-05T08:11:41.911Z,1029.82
2017-12-05T08:12:51.077Z,1029.83
2017-12-05T08:14:00.241Z,1029.85
2017-12-05T08:15:09.686Z,1029.83
2017-12-05T08:16:18.852Z,1029.89
2017-12-05T08:17:27.769Z,1029.89
2017-12-05T08:18:36.668Z,1029.88
2017-12-05T08:19:45.893Z,1029.93
2017-12-05T08:20:55.089Z,1029.88
2017-12-05T08:22:04.006Z,1029.88
2017-12-05T08:23:13.171Z,1029.86
2017-12-05T08:24:22.336Z,1029.85
2017-12-05T08:25:31.268Z,1029.92
2017-12-05T08:26:41.125Z,1029.89
2017-12-05T08:27:50.305Z,1029.91
2017-12-05T08:28:58.968Z,1029.92
2017-12-05T08:30:08.132Z,1029.9
2017-12-05T08:31:17.079Z,1029.88
2017-12-05T08:32:26.087Z,1029.93
2017-12-05T08:33:35.379Z,1029.97
2017-12-05T08:34:44.554Z,1029.92
2017-12-05T08:35:53.579Z,1029.96
2017-12-05T08:37:02.570Z,1029.94
2017-12-05T08:38:11.480Z,1029.93
2017-12-05T08:39:20.137Z,1029.93
2017-12-05T08:40:29.062Z,1030
2017-12-05T08:41:38.237Z,1030.02
2017-12-05T08:42:47.846Z,1029.97
2017-12-05T08:43:57.101Z,1029.95
2017-12-05T08:45:06.839Z,1029.99
2017-12-05T08:46:16.446Z,1029.88
2017-12-05T08:47:25.366Z,1029.92
2017-12-05T08:48:34.587Z,1029.89
2017-12-05T08:49:43.934Z,1029.9
2017-12-05T08:50:52.849Z,1029.91
2017-12-05T08:52:01.507Z,1029.89
2017-12-05T08:53:10.694Z,1029.93
2017-12-05T08:54:20.113Z,1029.97
2017-12-05T08:55:29.022Z,1030.01
2017-12-05T08:56:38.470Z,1030.01
2017-12-05T08:57:47.647Z,1029.98
2017-12-05T08:58:56.566Z,1029.97
2017-12-05T09:00:05.234Z,1030.01
2017-12-05T09:01:14.394Z,1029.97
2017-12-05T09:02:24.108Z,1030
2017-12-05T09:03:33.334Z,1030.03
2017-12-05T09:04:42.514Z,1030.01
2017-12-05T09:05:51.955Z,1029.99
2017-12-05T09:07:01.114Z,1030.01
2017-12-05T09:08:10.532Z,1030.06
2017-12-05T09:09:19.702Z,1030.1
2017-12-05T09:10:28.868Z,1030.1
2017-12-05T09:11:38.027Z,1030.1
2017-12-05T09:12:47.186Z,1030.07
2017-12-05T09:13:55.833Z,1030.09
2017-12-05T09:15:04.745Z,1030.09
2017-12-05T09:16:13.403Z,1030.07
2017-12-05T09:17:22.583Z,1030.05
2017-12-05T09:18:31.495Z,1030.05
2017-12-05T09:19:40.398Z,1030.05
2017-12-05T09:20:49.316Z,1030.07
2017-12-05T09:21:58.547Z,1030.04
2017-12-05T09:23:07.995Z,1030.03
2017-12-05T09:24:17.160Z,1030.01
2017-12-05T09:25:26.873Z,1030.04
2017-12-05T09:26:36.045Z,1030.03
2017-12-05T09:27:45.209Z,1030.04
2017-12-05T09:28:54.380Z,1030.11
2017-12-05T09:30:03.293Z,1030.09
2017-12-05T09:31:12.470Z,1030.11
2017-12-05T09:32:21.384Z,1030.14
2017-12-05T09:33:30.817Z,1030.18
2017-12-05T09:34:39.719Z,1030.18
2017-12-05T09:35:48.927Z,1030.14
2017-12-05T09:36:58.395Z,1030.12
2017-12-05T09:38:07.571Z,1030.17
2017-12-05T09:39:16.226Z,1030.18
2017-12-05T09:40:25.412Z,1030.13
2017-12-05T09:41:35.344Z,1030.14
2017-12-05T09:42:44.262Z,1030.13
2017-12-05T09:43:53.706Z,1030.15
2017-12-05T09:45:02.606Z,1030.1
2017-12-05T09:46:12.047Z,1030.12
2017-12-05T09:47:20.695Z,1030.09
2017-12-05T09:48:30.113Z,1030.12
2017-12-05T09:49:39.039Z,1030.13
2017-12-05T09:50:48.455Z,1030.1
2017-12-05T09:51:57.642Z,1030.12
2017-12-05T09:53:06.840Z,1030.15
2017-12-05T09:54:16.004Z,1030.12
2017-12-05T09:55:24.906Z,1030.15
2017-12-05T09:56:34.076Z,1030.16
2017-12-05T09:57:43.502Z,1030.16
2017-12-05T09:58:52.414Z,1030.19
2017-12-05T10:00:01.327Z,1030.22
2017-12-05T10:01:10.753Z,1030.21
2017-12-05T10:02:19.656Z,1030.14
2017-12-05T10:03:28.566Z,1030.17
2017-12-05T10:04:37.994Z,1030.2
2017-12-05T10:05:47.422Z,1030.22
2017-12-05T10:06:56.087Z,1030.2
2017-12-05T10:08:05.508Z,1030.22
2017-12-05T10:09:14.678Z,1030.26
2017-12-05T10:10:24.113Z,1030.21
2017-12-05T10:11:33.549Z,1030.25
2017-12-05T10:12:42.479Z,1030.22
2017-12-05T10:13:51.383Z,1030.18
2017-12-05T10:15:00.822Z,1030.24
2017-12-05T10:16:10.499Z,1030.19
2017-12-05T10:17:19.407Z,1030.19
2017-12-05T10:18:28.570Z,1030.18
2017-12-05T10:19:38.273Z,1030.18
2017-12-05T10:20:47.437Z,1030.16
2017-12-05T10:21:56.884Z,1030.18
2017-12-05T10:23:05.792Z,1030.16
2017-12-05T10:24:15.209Z,1030.18
2017-12-05T10:25:24.115Z,1030.17
2017-12-05T10:26:33.276Z,1030.2
2017-12-05T10:27:42.452Z,1030.16
2017-12-05T10:28:51.625Z,1030.17
2017-12-05T10:30:00.268Z,1030.19
2017-12-05T10:31:09.173Z,1030.2
2017-12-05T10:32:18.083Z,1030.16
2017-12-05T10:33:27.007Z,1030.2
2017-12-05T10:34:35.921Z,1030.17
2017-12-05T10:35:45.104Z,1030.18
2017-12-05T10:36:54.265Z,1030.16
2017-12-05T10:38:03.432Z,1030.16
2017-12-05T10:39:12.608Z,1030.12
2017-12-05T10:40:22.336Z,1030.12
2017-12-05T10:41:31.571Z,1030.1
2017-12-05T10:42:40.243Z,1030.12
2017-12-05T10:43:49.197Z,1030.1
2017-12-05T10:44:58.422Z,1030.13
2017-12-05T10:46:07.371Z,1030.12
2017-12-05T10:47:16.334Z,1030.07
2017-12-05T10:48:25.818Z,1030.09
2017-12-05T10:49:34.759Z,1030.06
2017-12-05T10:50:44.238Z,1030.06
2017-12-05T10:51:53.718Z,1030.07
2017-12-05T10:53:02.724Z,1030.04
2017-12-05T10:54:11.431Z,1030.05
2017-12-05T10:55:20.383Z,1030.04
2017-12-05T10:56:29.321Z,1030.04
2017-12-05T10:57:38.268Z,1030.09
2017-12-05T10:58:47.470Z,1030.03
2017-12-05T10:59:56.670Z,1030.05
2017-12-05T11:01:05.618Z,1030.06
2017-12-05T11:02:14.564Z,1030.05
2017-12-05T11:03:23.502Z,1030.04
2017-12-05T11:04:32.716Z,1030.04
2017-12-05T11:05:41.939Z,1030.08
2017-12-05T11:06:51.140Z,1030.03
2017-12-05T11:08:00.092Z,1030.05
2017-12-05T11:09:09.034Z,1030.01
2017-12-05T11:10:17.964Z,1029.99
2017-12-05T11:11:27.180Z,1029.98
2017-12-05T11:12:35.866Z,1029.98
2017-12-05T11:13:44.817Z,1029.99
2017-12-05T11:14:53.760Z,1029.99
2017-12-05T11:16:03.242Z,1029.98
2017-12-05T11:17:12.715Z,1029.92
2017-12-05T11:18:21.927Z,1029.99
2017-12-05T11:19:31.135Z,1029.93
2017-12-05T11:20:40.084Z,1029.94
2017-12-05T11:21:49.296Z,1029.94
2017-12-05T11:22:58.234Z,1029.97
2017-12-05T11:24:07.727Z,1030
2017-12-05T11:25:17.211Z,1029.97
2017-12-05T11:26:26.435Z,1029.95
2017-12-05T11:27:35.644Z,1029.94
2017-12-05T11:28:45.379Z,1029.95
2017-12-05T11:29:54.572Z,1029.98
2017-12-05T11:31:03.777Z,1029.98
2017-12-05T11:32:12.721Z,1030
2017-12-05T11:33:21.664Z,1029.93
2017-12-05T11:34:31.135Z,1029.94
2017-12-05T11:35:40.357Z,1029.97
2017-12-05T11:36:50.389Z,1029.89
2017-12-05T11:37:59.865Z,1029.95
2017-12-05T11:39:08.537Z,1029.94
2017-12-05T11:40:17.753Z,1029.95
2017-12-05T11:41:26.690Z,1029.98
2017-12-05T11:42:36.742Z,1029.92
2017-12-05T11:43:45.936Z,1029.95
2017-12-05T11:44:54.631Z,1029.97
2017-12-05T11:46:03.854Z,1029.99
2017-12-05T11:47:12.533Z,1029.9
2017-12-05T11:48:21.473Z,1029.93
2017-12-05T11:49:30.440Z,1029.97
2017-12-05T11:50:39.650Z,1029.94
2017-12-05T11:51:48.320Z,1029.9
2017-12-05T11:52:57.529Z,1029.9
2017-12-05T11:54:07.260Z,1029.93
2017-12-05T11:55:16.192Z,1029.9
2017-12-05T11:56:25.679Z,1029.86
2017-12-05T11:57:35.157Z,1029.89
2017-12-05T11:58:44.096Z,1029.91
2017-12-05T11:59:53.304Z,1029.92
2017-12-05T12:01:02.528Z,1029.87
2017-12-05T12:02:11.474Z,1029.86
2017-12-05T12:03:20.931Z,1029.89
2017-12-05T12:04:29.899Z,1029.85
2017-12-05T12:05:39.356Z,1029.88
2017-12-05T12:06:49.010Z,1029.93
2017-12-05T12:07:58.510Z,1029.88
2017-12-05T12:09:07.722Z,1029.89
2017-12-05T12:10:16.947Z,1029.89
2017-12-05T12:11:25.894Z,1029.91
2017-12-05T12:12:35.094Z,1029.9
2017-12-05T12:13:44.031Z,1029.9
2017-12-05T12:14:52.725Z,1029.87
2017-12-05T12:16:02.195Z,1029.84
2017-12-05T12:17:11.402Z,1029.91
2017-12-05T12:18:20.616Z,1029.84
2017-12-05T12:19:29.560Z,1029.91
2017-12-05T12:20:38.512Z,1029.85
2017-12-05T12:21:47.455Z,1029.85
2017-12-05T12:22:57.209Z,1029.86
2017-12-05T12:24:06.159Z,1029.87
2017-12-05T12:25:15.369Z,1029.87
2017-12-05T12:26:24.323Z,1029.86
2017-12-05T12:27:33.308Z,1029.9
2017-12-05T12:28:42.835Z,1029.89
2017-12-05T12:29:52.034Z,1029.85
2017-12-05T12:31:00.993Z,1029.86
2017-12-05T12:32:10.210Z,1029.85
2017-12-05T12:33:19.412Z,1029.84
2017-12-05T12:34:29.135Z,1029.81
2017-12-05T12:35:38.631Z,1029.85
2017-12-05T12:36:47.893Z,1029.8
2017-12-05T12:37:57.894Z,1029.83
2017-12-05T12:39:07.123Z,1029.84
2017-12-05T12:40:17.191Z,1029.87
2017-12-05T12:41:26.408Z,1029.81
2017-12-05T12:42:35.373Z,1029.85
2017-12-05T12:43:44.445Z,1029.81
2017-12-05T12:44:53.599Z,1029.83
2017-12-05T12:46:02.820Z,1029.79
2017-12-05T12:47:11.889Z,1029.81
2017-12-05T12:48:21.175Z,1029.81
2017-12-05T12:49:30.118Z,1029.84
2017-12-05T12:50:39.497Z,1029.8
2017-12-05T12:51:48.730Z,1029.85
2017-12-05T12:53:10.154Z,1029.84
2017-12-05T12:54:19.500Z,1029.8
2017-12-05T12:55:28.843Z,1029.83
2017-12-05T12:56:39.837Z,1029.86
2017-12-05T12:57:49.768Z,1029.84
2017-12-05T12:58:59.517Z,1029.85
2017-12-05T13:00:08.476Z,1029.84
2017-12-05T13:01:17.980Z,1029.83
2017-12-05T13:02:26.673Z,1029.84
2017-12-05T13:03:35.882Z,1029.84
2017-12-05T13:04:45.366Z,1029.87
2017-12-05T13:05:54.576Z,1029.84
2017-12-05T13:07:03.784Z,1029.85
2017-12-05T13:08:13.044Z,1029.89
2017-12-05T13:09:21.767Z,1029.86
2017-12-05T13:10:30.993Z,1029.87
2017-12-05T13:11:40.733Z,1029.84
2017-12-05T13:12:50.464Z,1029.83
2017-12-05T13:13:59.732Z,1029.79
2017-12-05T13:15:08.956Z,1029.83
2017-12-05T13:16:18.428Z,1029.79
2017-12-05T13:17:28.158Z,1029.77
2017-12-05T13:18:37.384Z,1029.75
2017-12-05T13:19:46.315Z,1029.76
2017-12-05T13:20:56.053Z,1029.73
2017-12-05T13:22:05.510Z,1029.7
2017-12-05T13:23:15.008Z,1029.71
2017-12-05T13:24:24.470Z,1029.73
2017-12-05T13:25:33.927Z,1029.73
2017-12-05T13:26:42.878Z,1029.71
2017-12-05T13:27:52.098Z,1029.74
2017-12-05T13:29:01.573Z,1029.7
2017-12-05T13:30:10.810Z,1029.72
2017-12-05T13:31:20.535Z,1029.7
2017-12-05T13:32:29.478Z,1029.7
2017-12-05T13:33:38.414Z,1029.7
2017-12-05T13:34:47.125Z,1029.73
2017-12-05T13:35:56.742Z,1029.67
2017-12-05T13:37:06.210Z,1029.66
2017-12-05T13:38:15.945Z,1029.61
2017-12-05T13:39:24.876Z,1029.63
2017-12-05T13:40:34.087Z,1029.6
2017-12-05T13:41:43.374Z,1029.63
2017-12-05T13:42:53.137Z,1029.63
2017-12-05T13:44:02.100Z,1029.59
2017-12-05T13:45:11.367Z,1029.61
2017-12-05T13:46:20.353Z,1029.6
2017-12-05T13:47:29.334Z,1029.61
2017-12-05T13:48:38.808Z,1029.57
2017-12-05T13:49:48.019Z,1029.55
2017-12-05T13:50:57.279Z,1029.52
2017-12-05T13:52:06.278Z,1029.56
2017-12-05T13:53:15.615Z,1029.51
2017-12-05T13:54:24.567Z,1029.52
2017-12-05T13:55:34.097Z,1029.51
2017-12-05T13:56:43.822Z,1029.45
2017-12-05T13:57:52.834Z,1029.48
2017-12-05T13:59:02.388Z,1029.49
2017-12-05T14:00:12.175Z,1029.46